Time;durP1;ratioP1;P1;durP2;ratioP2;P2;SDS_P1;SDS_P2;PMS_P1;PMS_P2;Temp;Humidity;BMP_temperature;BMP_pressure;BME280_temperature;BME280_humidity;BME280_pressure;Samples;Min_cycle;Max_cycle;Signal;HPM_P1;HPM_P2
2023/09/29 00:01:39;;;;;;;645.13;615.72;;;;;;;23.81;55.71;98850.63;4905848;28;103202;-64
2023/09/29 00:04:08;;;;;;;321.42;309.25;;;;;;;24.60;52.84;98860.34;4903036;28;102954;-64
2023/09/29 00:06:38;;;;;;;225.18;216.63;;;;;;;24.98;51.22;98850.91;4915976;28;103930;-64
2023/09/29 00:09:07;;;;;;;192.48;185.18;;;;;;;25.00;50.71;98843.41;4902386;28;103302;-64
2023/09/29 00:11:35;;;;;;;330.27;317.55;;;;;;;24.76;51.32;98839.28;4910081;28;103253;-64
2023/09/29 00:14:03;;;;;;;617.23;589.77;;;;;;;23.41;54.71;98841.28;4905271;28;102949;-64
2023/09/29 00:16:31;;;;;;;660.30;631.03;;;;;;;23.48;56.12;98840.31;4900639;28;102953;-64
2023/09/29 00:18:59;;;;;;;702.80;671.33;;;;;;;23.19;56.78;98840.31;4904280;28;103975;-64
2023/09/29 00:21:27;;;;;;;636.80;608.10;;;;;;;23.58;55.48;98837.31;4906806;28;103248;-64
2023/09/29 00:23:56;;;;;;;565.60;540.78;;;;;;;23.99;54.33;98837.56;4903693;28;104342;-64
2023/09/29 00:26:24;;;;;;;413.95;396.77;;;;;;;24.33;53.24;98843.09;4920240;28;102815;-64
2023/09/29 00:28:55;;;;;;;574.00;548.38;;;;;;;24.02;54.21;98845.28;4902820;28;104248;-64
2023/09/29 00:31:24;;;;;;;477.75;457.20;;;;;;;24.08;53.35;98839.91;4907000;28;103177;-65
2023/09/29 00:33:52;;;;;;;659.55;628.92;;;;;;;23.32;55.85;98848.59;4904954;28;102780;-65
2023/09/29 00:36:19;;;;;;;637.70;608.40;;;;;;;23.76;54.60;98850.38;4904899;28;106105;-65
2023/09/29 00:38:47;;;;;;;716.90;682.93;;;;;;;23.01;56.73;98847.97;4917725;28;104156;-64
2023/09/29 00:41:19;;;;;;;725.73;690.40;;;;;;;23.11;57.91;98853.91;4908136;28;103197;-65
2023/09/29 00:43:47;;;;;;;645.00;614.53;;;;;;;22.81;58.06;98849.53;4906659;28;102703;-65
2023/09/29 00:46:15;;;;;;;631.15;601.50;;;;;;;23.20;57.43;98849.25;4910075;28;104038;-64
2023/09/29 00:48:43;;;;;;;607.50;579.33;;;;;;;23.49;56.04;98843.84;4907404;28;104429;-65
2023/09/29 00:51:11;;;;;;;416.60;398.65;;;;;;;24.01;54.32;98846.28;4909060;28;104399;-65
2023/09/29 00:53:39;;;;;;;421.13;402.73;;;;;;;24.08;53.84;98844.50;4908705;28;103500;-65
2023/09/29 00:56:11;;;;;;;253.17;242.50;;;;;;;24.45;52.79;98843.41;4919320;28;103284;-66
2023/09/29 00:58:42;;;;;;;149.63;143.17;;;;;;;24.65;51.52;98839.81;4922347;28;104422;-65
2023/09/29 01:01:11;;;;;;;160.68;153.77;;;;;;;24.95;50.74;98842.34;4914037;28;103208;-65
2023/09/29 01:03:39;;;;;;;154.27;147.70;;;;;;;24.92;50.31;98842.75;4906970;28;102778;-65
2023/09/29 01:06:08;;;;;;;374.73;358.60;;;;;;;24.20;52.11;98842.97;4907729;28;102912;-65
2023/09/29 01:08:39;;;;;;;484.52;463.00;;;;;;;24.09;52.90;98840.75;4913475;28;104280;-65
2023/09/29 01:11:08;;;;;;;400.40;383.27;;;;;;;24.11;52.79;98844.16;4917552;28;104304;-66
2023/09/29 01:13:40;;;;;;;500.85;478.50;;;;;;;23.95;53.17;98839.78;4911273;28;103190;-65
2023/09/29 01:16:10;;;;;;;378.57;362.63;;;;;;;24.14;52.67;98838.38;4914808;28;104332;-65
2023/09/29 01:18:39;;;;;;;298.33;286.13;;;;;;;24.29;51.96;98841.81;4906760;28;104142;-65
2023/09/29 01:21:07;;;;;;;252.25;241.73;;;;;;;24.33;51.82;98839.56;4905605;28;103233;-65
2023/09/29 01:23:37;;;;;;;191.48;183.38;;;;;;;24.47;51.36;98842.19;4907187;28;102792;-65
2023/09/29 01:26:05;;;;;;;289.55;277.58;;;;;;;24.28;51.89;98844.72;4910617;28;102814;-65
2023/09/29 01:28:33;;;;;;;234.50;224.65;;;;;;;24.27;51.98;98833.06;4908902;28;104279;-65
2023/09/29 01:31:01;;;;;;;262.45;251.68;;;;;;;24.25;52.03;98837.00;4911885;28;103211;-65
2023/09/29 01:33:31;;;;;;;242.13;231.75;;;;;;;24.24;51.96;98838.88;4906372;28;102695;-65
2023/09/29 01:35:59;;;;;;;260.23;249.10;;;;;;;24.18;52.36;98829.69;4908468;28;104296;-65
2023/09/29 01:38:27;;;;;;;283.50;271.80;;;;;;;24.30;52.09;98834.56;4903530;28;104460;-65
2023/09/29 01:40:57;;;;;;;260.60;249.80;;;;;;;24.37;52.50;98838.97;4905174;28;103726;-65
2023/09/29 01:43:26;;;;;;;292.20;279.97;;;;;;;24.38;52.17;98832.56;4903114;28;102843;-65
2023/09/29 01:45:54;;;;;;;257.05;246.63;;;;;;;24.42;52.28;98836.50;4908933;28;103563;-65
2023/09/29 01:48:22;;;;;;;274.27;262.98;;;;;;;24.40;51.96;98843.13;4909554;28;104248;-65
2023/09/29 01:50:50;;;;;;;537.22;513.72;;;;;;;23.52;54.29;98830.81;4905613;28;104202;-65
2023/09/29 01:53:18;;;;;;;526.33;503.00;;;;;;;23.49;54.71;98828.53;4905872;28;104094;-65
2023/09/29 01:55:46;;;;;;;393.00;376.92;;;;;;;23.81;53.71;98831.75;4905904;28;104022;-65
2023/09/29 01:58:15;;;;;;;302.67;290.43;;;;;;;23.95;53.22;98831.69;4909152;28;104722;-65
2023/09/29 02:00:43;;;;;;;227.63;218.07;;;;;;;24.25;52.32;98837.84;4912118;28;104168;-65
2023/09/29 02:03:13;;;;;;;210.20;201.65;;;;;;;24.23;51.75;98837.19;4919522;28;103063;-65
2023/09/29 02:05:41;;;;;;;183.63;176.23;;;;;;;24.30;51.32;98843.50;4911011;28;102933;-65
2023/09/29 02:08:10;;;;;;;312.92;300.48;;;;;;;23.64;53.23;98831.16;4903866;28;103355;-65
2023/09/29 02:10:38;;;;;;;567.77;542.50;;;;;;;22.91;56.10;98833.91;4907203;28;104303;-65
2023/09/29 02:13:07;;;;;;;393.38;377.25;;;;;;;23.57;54.31;98828.41;4910567;28;102730;-65
2023/09/29 02:15:37;;;;;;;269.35;258.65;;;;;;;23.90;53.19;98836.84;4911390;28;103009;-65
2023/09/29 02:18:09;;;;;;;285.75;274.25;;;;;;;23.95;53.22;98825.47;4902600;28;103754;-66
2023/09/29 02:20:42;;;;;;;287.88;276.58;;;;;;;23.83;53.33;98824.31;4914015;28;104355;-64
2023/09/29 02:23:10;;;;;;;227.75;218.50;;;;;;;23.94;52.68;98821.97;4910379;28;102827;-64
2023/09/29 02:25:38;;;;;;;354.73;340.25;;;;;;;23.30;54.42;98822.84;4907793;28;103967;-64
2023/09/29 02:28:06;;;;;;;223.70;214.73;;;;;;;23.94;52.87;98827.34;4910018;28;103636;-64
2023/09/29 02:30:34;;;;;;;202.27;193.90;;;;;;;24.11;52.00;98828.78;4906329;28;104747;-64
2023/09/29 02:33:04;;;;;;;267.77;256.83;;;;;;;23.91;52.53;98827.75;4909151;28;103338;-64
2023/09/29 02:35:32;;;;;;;226.80;217.80;;;;;;;24.08;52.53;98818.31;4919173;28;102846;-64
2023/09/29 02:38:07;;;;;;;228.98;219.90;;;;;;;24.03;52.16;98817.22;4911818;28;103011;-64
2023/09/29 02:40:35;;;;;;;213.35;204.70;;;;;;;24.18;51.98;98815.34;4905455;28;103361;-64
2023/09/29 02:43:03;;;;;;;300.17;287.77;;;;;;;23.86;52.99;98818.56;4909904;28;103126;-64
2023/09/29 02:45:32;;;;;;;241.30;231.57;;;;;;;24.01;52.39;98822.00;4909891;28;104391;-64
2023/09/29 02:48:00;;;;;;;393.90;376.95;;;;;;;23.18;54.72;98816.28;4909944;28;104343;-64
2023/09/29 02:50:29;;;;;;;401.90;384.80;;;;;;;23.32;54.78;98810.03;4903415;28;103291;-64
2023/09/29 02:52:57;;;;;;;366.67;351.23;;;;;;;23.08;55.06;98824.63;4925384;28;102714;-64
2023/09/29 02:55:26;;;;;;;315.13;302.13;;;;;;;23.64;54.09;98823.91;4906394;28;103889;-64
2023/09/29 02:57:53;;;;;;;314.52;301.42;;;;;;;23.69;53.43;98833.31;4920480;28;104181;-64
2023/09/29 03:00:26;;;;;;;236.40;226.40;;;;;;;23.94;53.07;98829.22;4907996;28;104320;-64
2023/09/29 03:02:54;;;;;;;295.67;283.27;;;;;;;23.74;53.71;98825.47;4923446;28;102620;-64
2023/09/29 03:05:26;;;;;;;347.50;332.80;;;;;;;23.24;54.67;98821.75;4907269;28;103496;-64
2023/09/29 03:07:56;;;;;;;243.65;233.27;;;;;;;23.90;52.73;98819.81;4909649;28;103292;-64
2023/09/29 03:10:28;;;;;;;226.13;216.75;;;;;;;23.90;52.47;98830.59;4922806;28;103252;-64
2023/09/29 03:12:56;;;;;;;233.80;224.02;;;;;;;24.07;52.15;98815.84;4912649;28;102668;-64
2023/09/29 03:15:29;;;;;;;225.52;216.18;;;;;;;24.09;52.26;98813.78;4911654;28;104245;-64
2023/09/29 03:17:57;;;;;;;217.18;208.23;;;;;;;24.20;51.62;98815.97;4907632;28;104124;-64
2023/09/29 03:20:30;;;;;;;241.95;232.02;;;;;;;23.93;52.17;98819.44;4912925;28;103158;-64
2023/09/29 03:23:04;;;;;;;239.90;230.13;;;;;;;24.01;52.35;98805.81;4916839;28;102767;-64
2023/09/29 03:25:32;;;;;;;198.23;189.88;;;;;;;24.26;51.30;98809.81;4922652;28;104229;-65
2023/09/29 03:28:04;;;;;;;209.15;200.43;;;;;;;24.29;51.35;98812.13;4905308;28;103237;-65
2023/09/29 03:30:32;;;;;;;237.02;227.35;;;;;;;24.00;51.64;98813.06;4912826;28;103186;-65
2023/09/29 03:33:00;;;;;;;225.35;216.13;;;;;;;23.99;51.70;98818.66;4907462;28;102700;-65
2023/09/29 03:35:29;;;;;;;260.00;249.13;;;;;;;23.82;51.97;98811.84;4910917;28;104015;-65
2023/09/29 03:37:57;;;;;;;200.30;191.73;;;;;;;23.95;51.60;98818.22;4919654;28;106846;-64
2023/09/29 03:40:27;;;;;;;222.65;213.43;;;;;;;24.07;51.83;98823.94;4909457;28;103295;-64
2023/09/29 03:42:55;;;;;;;225.63;216.15;;;;;;;23.84;51.81;98815.19;4910600;28;102714;-64
2023/09/29 03:45:23;;;;;;;220.85;211.63;;;;;;;24.12;51.52;98816.13;4907278;28;102810;-65
2023/09/29 03:47:51;;;;;;;226.10;216.52;;;;;;;24.02;51.08;98816.44;4908865;28;103960;-65
2023/09/29 03:50:20;;;;;;;171.63;165.02;;;;;;;24.26;50.93;98826.00;4915728;28;104357;-65
2023/09/29 03:52:47;;;;;;;134.43;129.30;;;;;;;24.27;50.19;98822.28;4904733;28;102811;-65
2023/09/29 03:55:16;;;;;;;155.03;148.83;;;;;;;24.36;50.01;98828.38;4905492;28;103972;-64
2023/09/29 03:57:45;;;;;;;131.15;126.15;;;;;;;24.49;49.68;98823.06;4910570;28;103349;-64
2023/09/29 04:00:15;;;;;;;179.52;172.68;;;;;;;24.23;50.81;98829.94;4908863;28;103350;-65
2023/09/29 04:02:44;;;;;;;199.68;192.10;;;;;;;24.01;51.02;98832.78;4914018;28;102960;-64
2023/09/29 04:05:12;;;;;;;191.25;184.05;;;;;;;24.23;50.74;98835.31;4918479;28;103885;-65
2023/09/29 04:07:42;;;;;;;166.95;160.73;;;;;;;24.41;50.06;98845.66;4905835;28;103311;-65
2023/09/29 04:10:10;;;;;;;156.93;151.00;;;;;;;24.54;49.78;98836.81;4920935;28;103255;-64
2023/09/29 04:12:40;;;;;;;155.53;149.53;;;;;;;24.70;49.50;98829.25;4910408;28;102942;-65
2023/09/29 04:15:10;;;;;;;171.13;164.40;;;;;;;24.58;49.73;98824.59;4905488;28;104317;-65
2023/09/29 04:17:39;;;;;;;168.47;161.93;;;;;;;24.57;49.43;98829.16;4904200;28;104383;-65
2023/09/29 04:20:09;;;;;;;164.60;158.15;;;;;;;24.75;49.11;98821.41;4910779;28;104288;-64
2023/09/29 04:22:36;;;;;;;167.32;160.88;;;;;;;24.64;50.21;98821.97;4909932;28;102701;-65
2023/09/29 04:25:09;;;;;;;212.05;204.23;;;;;;;24.22;50.81;98833.66;4924415;28;103870;-64
2023/09/29 04:27:40;;;;;;;173.83;167.23;;;;;;;24.55;50.24;98842.03;4915596;28;103013;-64
2023/09/29 04:30:12;;;;;;;170.63;164.18;;;;;;;24.59;49.86;98837.91;4914219;28;103216;-64
2023/09/29 04:32:40;;;;;;;170.82;164.32;;;;;;;24.55;49.92;98847.44;4911738;28;102623;-64
2023/09/29 04:35:10;;;;;;;393.83;378.20;;;;;;;23.48;53.43;98859.19;4915901;28;103782;-64
2023/09/29 04:37:38;;;;;;;539.33;516.67;;;;;;;21.91;57.43;98878.19;4913170;28;104493;-64
2023/09/29 04:40:07;;;;;;;371.97;357.73;;;;;;;23.37;54.34;98866.88;4922230;28;103715;-64
2023/09/29 04:42:35;;;;;;;140.20;134.90;;;;;;;24.28;51.47;98850.94;4909554;28;102712;-65
2023/09/29 04:45:04;;;;;;;128.83;123.93;;;;;;;24.62;50.41;98852.88;4904982;28;103897;-65
2023/09/29 04:47:34;;;;;;;147.05;141.35;;;;;;;24.81;49.72;98859.50;4907929;28;103293;-65
2023/09/29 04:50:02;;;;;;;142.13;136.63;;;;;;;24.87;49.98;98858.72;4906621;28;103148;-65
2023/09/29 04:52:30;;;;;;;151.95;146.05;;;;;;;24.84;49.83;98851.84;4906382;28;103168;-65
2023/09/29 04:55:01;;;;;;;149.88;144.18;;;;;;;24.82;49.37;98847.63;4915511;28;103905;-65
2023/09/29 04:57:29;;;;;;;213.07;205.10;;;;;;;24.28;51.11;98844.72;4908081;28;104354;-64
2023/09/29 04:59:57;;;;;;;257.15;247.63;;;;;;;23.55;52.24;98843.91;4905943;28;103430;-64
2023/09/29 05:02:29;;;;;;;207.70;199.55;;;;;;;24.13;51.80;98852.88;4906689;28;102649;-64
2023/09/29 05:04:59;;;;;;;154.47;148.43;;;;;;;24.37;51.10;98852.47;4909736;28;103342;-64
2023/09/29 05:07:29;;;;;;;118.18;113.53;;;;;;;24.74;49.63;98846.75;4905218;28;103229;-65
2023/09/29 05:09:58;;;;;;;115.17;110.77;;;;;;;24.89;49.12;98843.13;4910370;28;103239;-65
2023/09/29 05:12:25;;;;;;;125.00;120.10;;;;;;;25.07;48.98;98838.03;4907797;28;103224;-65
2023/09/29 05:14:53;;;;;;;131.75;126.55;;;;;;;24.79;49.33;98848.84;4905463;28;104095;-65
2023/09/29 05:17:21;;;;;;;130.23;125.22;;;;;;;24.71;49.87;98841.72;4906860;28;103912;-65
2023/09/29 05:19:51;;;;;;;124.75;119.95;;;;;;;24.98;49.11;98844.66;4917091;28;104443;-65
2023/09/29 05:22:21;;;;;;;150.23;144.38;;;;;;;24.47;50.19;98850.28;4907179;28;102747;-64
2023/09/29 05:24:49;;;;;;;125.63;120.72;;;;;;;24.81;49.65;98844.13;4908442;28;104106;-65
2023/09/29 05:27:17;;;;;;;115.38;110.88;;;;;;;25.00;48.73;98853.38;4914959;28;104020;-64
2023/09/29 05:29:45;;;;;;;138.15;132.80;;;;;;;24.88;49.11;98857.66;4908214;28;103167;-64
2023/09/29 05:32:13;;;;;;;190.23;182.95;;;;;;;24.12;50.63;98870.09;4911521;28;103131;-64
2023/09/29 05:34:41;;;;;;;207.53;199.43;;;;;;;23.93;51.99;98863.44;4914963;28;102768;-65
2023/09/29 05:37:09;;;;;;;215.38;207.27;;;;;;;24.03;52.07;98868.50;4913480;28;103492;-65
2023/09/29 05:39:40;;;;;;;140.02;134.43;;;;;;;24.79;49.72;98863.22;4911220;28;103382;-65
2023/09/29 05:42:08;;;;;;;144.55;138.98;;;;;;;24.74;49.57;98862.13;4913172;28;102832;-65
2023/09/29 05:44:36;;;;;;;157.13;150.82;;;;;;;24.45;50.24;98865.81;4908581;28;103068;-65
2023/09/29 05:47:04;;;;;;;129.02;123.82;;;;;;;24.96;49.06;98861.03;4908934;28;104029;-65
2023/09/29 05:49:32;;;;;;;307.30;295.45;;;;;;;22.32;55.72;98876.03;4914209;28;103412;-64
2023/09/29 05:52:00;;;;;;;226.23;217.50;;;;;;;23.52;53.05;98870.44;4903623;28;106901;-65
2023/09/29 05:54:28;;;;;;;122.85;117.85;;;;;;;24.36;50.75;98868.88;4915970;28;102805;-63
2023/09/29 05:56:57;;;;;;;139.90;134.37;;;;;;;24.52;50.13;98880.22;4910638;28;104332;-64
2023/09/29 05:59:25;;;;;;;231.37;222.30;;;;;;;23.72;52.57;98876.88;4911257;28;103169;-64
2023/09/29 06:01:53;;;;;;;108.23;103.83;;;;;;;24.64;50.02;98875.13;4916346;28;102995;-64
2023/09/29 06:04:35;;;;;;;134.75;129.32;;;;;;;24.87;49.39;98872.22;4904505;28;103718;-63
2023/09/29 06:07:04;;;;;;;121.13;116.23;;;;;;;25.05;49.79;98872.53;4910592;28;103677;-63
2023/09/29 06:09:32;;;;;;;133.30;127.90;;;;;;;24.61;50.28;98868.25;4912079;28;104353;-63
2023/09/29 06:12:01;;;;;;;136.88;131.48;;;;;;;24.72;50.38;98875.81;4910705;28;103436;-63
2023/09/29 06:14:32;;;;;;;126.13;121.20;;;;;;;25.00;49.35;98883.09;4912224;28;103995;-63
2023/09/29 06:17:00;;;;;;;160.80;154.57;;;;;;;24.16;51.39;98884.88;4913662;28;104029;-63
2023/09/29 06:19:28;;;;;;;143.88;138.18;;;;;;;24.58;50.41;98884.84;4927477;28;103311;-64
2023/09/29 06:21:56;;;;;;;147.40;141.35;;;;;;;24.91;50.00;98885.13;4918936;28;102621;-67
2023/09/29 06:24:26;;;;;;;154.77;148.70;;;;;;;24.91;49.83;98889.69;4938132;28;104170;-68
2023/09/29 06:26:55;;;;;;;150.95;144.77;;;;;;;24.92;49.85;98896.78;4914877;28;103748;-68
2023/09/29 06:29:25;;;;;;;155.80;149.60;;;;;;;25.18;49.42;98891.56;4908655;28;103251;-68
2023/09/29 06:31:54;;;;;;;147.02;141.00;;;;;;;25.40;48.63;98893.13;4912159;28;102713;-68
2023/09/29 06:34:22;;;;;;;144.55;138.90;;;;;;;25.69;48.21;98900.13;4912616;28;102738;-68
2023/09/29 06:36:50;;;;;;;151.15;144.63;;;;;;;24.77;50.01;98889.56;4909128;28;103986;-68
2023/09/29 06:39:17;;;;;;;148.87;142.77;;;;;;;24.83;50.11;98903.34;4911461;28;103570;-67
2023/09/29 06:41:45;;;;;;;139.70;133.90;;;;;;;24.70;50.57;98904.88;4916165;28;103134;-67
2023/09/29 06:44:13;;;;;;;150.85;144.73;;;;;;;24.54;50.72;98899.78;4915277;28;103788;-67
2023/09/29 06:46:43;;;;;;;142.23;135.98;;;;;;;24.43;50.55;98903.00;4910028;28;104008;-68
2023/09/29 06:49:11;;;;;;;149.52;143.52;;;;;;;24.89;50.58;98906.13;4914929;28;103383;-64
2023/09/29 06:51:39;;;;;;;145.63;139.82;;;;;;;25.45;48.45;98904.19;4913483;28;102657;-64
2023/09/29 06:54:10;;;;;;;145.30;139.03;;;;;;;25.36;48.79;98908.91;4915031;28;102854;-64
2023/09/29 06:56:41;;;;;;;158.90;152.50;;;;;;;25.63;48.16;98912.59;4914886;28;103819;-64
2023/09/29 06:59:09;;;;;;;156.23;149.80;;;;;;;25.28;49.08;98905.53;4912290;28;103395;-63
2023/09/29 07:01:37;;;;;;;185.15;177.57;;;;;;;25.13;49.65;98916.47;4915356;28;102721;-64
2023/09/29 07:04:06;;;;;;;152.93;146.68;;;;;;;25.62;48.33;98905.53;4920246;28;103919;-64
2023/09/29 07:06:36;;;;;;;163.10;156.38;;;;;;;25.92;47.85;98912.31;4914690;28;103970;-64
2023/09/29 07:09:04;;;;;;;156.73;150.32;;;;;;;25.93;47.75;98905.88;4909320;28;104093;-64
2023/09/29 07:11:32;;;;;;;164.05;157.55;;;;;;;26.43;46.63;98903.69;4920884;28;102655;-63
2023/09/29 07:14:01;;;;;;;158.52;152.07;;;;;;;26.69;46.23;98902.88;4917432;28;104854;-64
2023/09/29 07:16:29;;;;;;;171.30;164.25;;;;;;;26.48;46.99;98896.63;4912630;28;104189;-64
2023/09/29 07:18:57;;;;;;;170.93;163.77;;;;;;;26.32;47.29;98901.59;4914630;28;102913;-67
2023/09/29 07:21:28;;;;;;;163.63;157.00;;;;;;;26.37;46.77;98910.78;4914801;28;102610;-64
2023/09/29 07:23:56;;;;;;;141.90;136.00;;;;;;;26.44;46.96;98897.25;4912288;28;102932;-67
2023/09/29 07:26:26;;;;;;;133.85;128.35;;;;;;;26.88;46.16;98897.50;4916595;28;103053;-64
2023/09/29 07:28:57;;;;;;;131.38;126.15;;;;;;;27.25;45.57;98900.56;4914850;28;102967;-63
2023/09/29 07:31:34;;;;;;;123.72;118.78;;;;;;;27.05;45.79;98895.16;4909628;28;102651;-63
2023/09/29 07:34:03;;;;;;;123.13;118.07;;;;;;;26.19;47.38;98910.53;4922771;28;104438;-67
2023/09/29 07:36:33;;;;;;;118.50;113.70;;;;;;;26.59;46.85;98902.44;4911343;28;104038;-64
2023/09/29 07:39:02;;;;;;;118.65;113.88;;;;;;;26.90;46.31;98900.81;4914963;28;103199;-67
2023/09/29 07:41:30;;;;;;;120.70;115.95;;;;;;;27.16;45.97;98899.09;4913484;28;102678;-64
2023/09/29 07:43:58;;;;;;;126.63;121.60;;;;;;;27.43;45.52;98895.31;4919357;28;102976;-64
2023/09/29 07:46:27;;;;;;;122.70;117.70;;;;;;;27.30;45.15;98895.31;4918931;28;102987;-66
2023/09/29 07:49:03;;;;;;;123.32;118.25;;;;;;;27.34;45.39;98902.00;4913427;28;103236;-64
2023/09/29 07:51:33;;;;;;;119.93;115.25;;;;;;;27.93;44.49;98902.59;4922413;28;103674;-66
2023/09/29 07:54:27;;;;;;;117.80;113.15;;;;;;;27.48;44.90;98909.09;4933702;28;103865;-64
2023/09/29 07:57:08;;;;;;;108.30;104.03;;;;;;;27.24;45.76;98907.00;4915784;28;104251;-63
2023/09/29 07:59:36;;;;;;;116.10;111.40;;;;;;;27.58;44.93;98909.44;4920773;28;103507;-63
2023/09/29 08:02:09;;;;;;;122.07;117.25;;;;;;;27.76;44.67;98904.19;4920454;28;103066;-65
2023/09/29 08:04:37;;;;;;;114.25;109.38;;;;;;;27.00;45.96;98906.63;4914235;28;103360;-65
2023/09/29 08:07:09;;;;;;;110.35;105.68;;;;;;;27.21;45.79;98913.69;4920202;28;103330;-63
2023/09/29 08:09:37;;;;;;;114.30;109.68;;;;;;;27.61;45.65;98917.16;4920817;28;103152;-65
2023/09/29 08:12:06;;;;;;;117.50;112.68;;;;;;;28.65;43.16;98912.25;4933759;28;102606;-66
2023/09/29 08:14:34;;;;;;;113.50;108.70;;;;;;;28.71;43.65;98911.38;4914824;28;103941;-65
2023/09/29 08:17:04;;;;;;;114.80;109.97;;;;;;;28.53;43.51;98920.25;4912070;28;104349;-64
2023/09/29 08:19:40;;;;;;;126.30;120.93;;;;;;;29.55;43.12;98902.59;4913042;28;104441;-66
2023/09/29 08:22:12;;;;;;;115.63;110.60;;;;;;;29.55;42.60;98903.44;4926534;28;102692;-65
2023/09/29 08:24:55;;;;;;;102.38;98.07;;;;;;;28.81;43.14;98911.69;4921202;28;102843;-66
2023/09/29 08:27:24;;;;;;;80.40;76.88;;;;;;;29.41;42.25;98901.09;4916187;28;104148;-63
2023/09/29 08:29:51;;;;;;;67.70;64.43;;;;;;;29.60;41.62;98906.31;4921635;28;103538;-65
2023/09/29 08:32:22;;;;;;;59.15;56.42;;;;;;;29.23;42.04;98912.78;4919360;28;102679;-63
2023/09/29 08:34:50;;;;;;;49.83;47.25;;;;;;;29.34;42.32;98906.59;4917833;28;102711;-66
2023/09/29 08:37:20;;;;;;;44.10;41.60;;;;;;;29.36;42.86;98904.50;4906791;28;104551;-62
2023/09/29 08:39:49;;;;;;;54.95;52.45;;;;;;;29.53;42.20;98902.00;4908783;28;103089;-63
2023/09/29 08:42:32;;;;;;;53.75;50.88;;;;;;;29.24;43.01;98901.69;4914421;28;102856;-62
2023/09/29 08:45:00;;;;;;;62.47;59.53;;;;;;;29.31;42.15;98897.00;4910220;28;102847;-65
2023/09/29 08:47:31;;;;;;;47.42;45.20;;;;;;;29.27;42.65;98895.78;4912654;28;104246;-63
2023/09/29 08:50:00;;;;;;;49.35;46.83;;;;;;;29.26;42.49;98906.88;4922891;28;103287;-66
2023/09/29 08:52:32;;;;;;;55.90;53.25;;;;;;;29.96;42.06;98905.44;4910535;28;102945;-66
2023/09/29 08:55:02;;;;;;;66.47;63.20;;;;;;;30.50;41.19;98911.81;4921995;28;102664;-63
2023/09/29 08:57:34;;;;;;;84.90;81.07;;;;;;;31.74;39.90;98906.06;4915691;28;103839;-63
2023/09/29 09:00:04;;;;;;;123.32;117.80;;;;;;;31.95;39.27;98903.50;4906771;28;104456;-66
2023/09/29 09:02:32;;;;;;;104.93;100.05;;;;;;;31.43;39.87;98902.66;4913177;28;102774;-66
2023/09/29 09:05:00;;;;;;;160.23;153.05;;;;;;;31.82;39.92;98894.75;4917374;28;102840;-63
2023/09/29 09:07:30;;;;;;;216.63;206.67;;;;;;;32.33;39.13;98885.66;4911183;28;104306;-64
2023/09/29 09:09:59;;;;;;;236.68;225.35;;;;;;;32.54;39.63;98883.06;4917689;28;103334;-64
2023/09/29 09:12:34;;;;;;;262.80;250.77;;;;;;;32.88;38.16;98883.06;4911699;28;102944;-63
2023/09/29 09:15:03;;;;;;;231.40;220.27;;;;;;;32.59;38.91;98885.06;4916862;28;104190;-63
2023/09/29 09:17:34;;;;;;;361.43;344.27;;;;;;;33.25;38.19;98886.94;4919810;28;104282;-63
2023/09/29 09:20:03;;;;;;;458.70;436.02;;;;;;;33.53;36.74;98870.34;4911671;28;103060;-66
2023/09/29 09:22:33;;;;;;;361.63;344.97;;;;;;;33.79;38.05;98871.50;4916202;28;103059;-66
2023/09/29 09:25:14;;;;;;;554.92;528.25;;;;;;;34.40;36.14;98881.22;4905064;28;103968;-66
2023/09/29 09:27:43;;;;;;;649.28;617.92;;;;;;;34.84;35.33;98877.25;4909216;28;103540;-61
2023/09/29 09:30:21;;;;;;;596.88;568.33;;;;;;;34.19;36.22;98880.19;4907013;28;103234;-65
2023/09/29 09:32:50;;;;;;;548.97;522.78;;;;;;;34.12;36.63;98874.09;4910679;28;102781;-63
2023/09/29 09:35:26;;;;;;;495.37;471.87;;;;;;;34.54;37.17;98876.97;4916592;28;103736;-65
2023/09/29 09:37:56;;;;;;;508.98;484.40;;;;;;;34.17;37.05;98881.53;4907410;28;103359;-63
2023/09/29 09:40:26;;;;;;;729.13;692.63;;;;;;;34.72;35.83;98884.84;4906576;28;103214;-66
2023/09/29 09:42:58;;;;;;;658.72;627.10;;;;;;;34.21;36.44;98874.47;4917624;28;104545;-65
2023/09/29 09:45:26;;;;;;;799.88;758.40;;;;;;;34.90;35.45;98876.19;4924976;28;105226;-66
2023/09/29 09:47:58;;;;;;;686.13;652.33;;;;;;;34.67;36.61;98873.81;4908784;28;104269;-63
2023/09/29 09:50:29;;;;;;;696.60;662.83;;;;;;;34.46;35.92;98871.97;4909511;28;104213;-63
2023/09/29 09:53:00;;;;;;;740.20;702.97;;;;;;;34.71;35.89;98872.22;4907101;28;103080;-66
2023/09/29 09:55:37;;;;;;;717.55;681.45;;;;;;;34.66;35.85;98879.56;4908382;28;103293;-66
2023/09/29 09:58:13;;;;;;;597.07;568.73;;;;;;;34.21;36.58;98877.22;4903895;28;103274;-66
2023/09/29 10:00:44;;;;;;;664.55;632.20;;;;;;;34.25;35.85;98881.91;4906552;28;103254;-63
2023/09/29 10:03:15;;;;;;;589.33;560.57;;;;;;;33.95;37.27;98875.25;4909712;28;103154;-64
2023/09/29 10:05:52;;;;;;;709.83;675.25;;;;;;;34.38;36.16;98873.28;4909967;28;103507;-63
2023/09/29 10:08:29;;;;;;;800.83;759.20;;;;;;;34.88;35.77;98870.16;4903232;28;103963;-63
2023/09/29 10:11:13;;;;;;;669.00;635.33;;;;;;;34.41;36.13;98866.44;4919172;28;103311;-66
2023/09/29 10:13:44;;;;;;;865.97;818.87;;;;;;;35.47;34.95;98864.50;4909015;28;102789;-66
2023/09/29 10:16:22;;;;;;;840.42;795.50;;;;;;;35.56;34.87;98873.91;4909499;28;102649;-65
2023/09/29 10:18:58;;;;;;;906.53;856.00;;;;;;;35.89;34.10;98867.16;4905579;28;104498;-62
2023/09/29 10:21:28;;;;;;;857.78;811.17;;;;;;;35.08;35.12;98866.75;4910204;28;103222;-66
2023/09/29 10:24:00;;;;;;;903.47;853.22;;;;;;;35.35;34.73;98872.94;4909021;28;102649;-66
2023/09/29 10:26:43;;;;;;;924.33;872.13;;;;;;;35.26;34.19;98868.22;4904137;28;104078;-63
2023/09/29 10:29:18;;;;;;;949.40;895.42;;;;;;;35.58;32.71;98866.22;4907713;28;103046;-62
2023/09/29 10:31:48;;;;;;;943.37;890.60;;;;;;;34.51;34.13;98868.44;4909538;28;103261;-63
2023/09/29 10:34:20;;;;;;;932.47;879.67;;;;;;;35.78;33.10;98858.06;4912114;28;102651;-66
2023/09/29 10:36:54;;;;;;;854.33;810.27;;;;;;;35.44;32.82;98862.28;4911025;28;104042;-66
2023/09/29 10:39:28;;;;;;;854.13;809.85;;;;;;;35.73;32.25;98860.78;4908931;28;103329;-66
2023/09/29 10:42:05;;;;;;;867.20;821.70;;;;;;;35.13;32.84;98852.22;4907432;28;104236;-65
2023/09/29 10:44:43;;;;;;;852.20;807.42;;;;;;;35.36;32.59;98849.06;4908474;28;102714;-65
2023/09/29 10:47:13;;;;;;;916.90;866.90;;;;;;;35.38;32.88;98850.44;4900716;28;104174;-66
2023/09/29 10:49:45;;;;;;;842.72;799.40;;;;;;;36.07;32.09;98852.13;4909662;28;104294;-65
2023/09/29 10:52:22;;;;;;;847.97;803.87;;;;;;;35.69;32.23;98843.19;4902945;28;103187;-66
2023/09/29 10:54:56;;;;;;;808.30;768.03;;;;;;;36.42;31.52;98838.41;4913314;28;102798;-66
2023/09/29 10:57:25;;;;;;;859.33;814.50;;;;;;;35.86;32.47;98838.28;4912893;28;103859;-65
2023/09/29 10:59:59;;;;;;;821.50;780.00;;;;;;;36.27;32.60;98847.47;4908416;28;104052;-62
2023/09/29 11:02:30;;;;;;;839.17;796.17;;;;;;;36.11;32.02;98832.03;4918121;28;103312;-63
2023/09/29 11:05:03;;;;;;;831.95;789.88;;;;;;;35.86;32.48;98834.72;4912885;28;102801;-66
2023/09/29 11:07:31;;;;;;;757.90;721.92;;;;;;;37.36;31.23;98832.28;4920009;28;103468;-66